Terminal Aerodrome Forecast
Issued by NWS Lake Charles, LA

Home | Current Version | Previous Version | Text Only | Print | Product List | Glossary On
Versions: 1 2 3 4 5 6 7 8 9 10 11 12 13 14 15 16 17 18
000
FTUS44 KLCH 312300
TAFBPT
TAF
KBPT 312325Z 0100/0124 16007KT P6SM SCT040 BKN200
     FM010900 VRB05KT P6SM VCSH SCT035 BKN150
     FM011200 24007KT P6SM VCSH BKN040 PROB30 0113/0119 3SM -TSRA
      BKN030CB=

USA.gov is the U.S. government's official web portal to all federal, state and local government web resources and services.